createdAt,value
2022-12-29T00:02:10.224Z,4.42
2022-12-29T00:04:42.612Z,2.65
2022-12-29T00:07:14.492Z,4.47
2022-12-29T00:09:46.437Z,5.85
2022-12-29T00:12:18.468Z,5.80
2022-12-29T00:15:07.866Z,3.83
2022-12-29T00:17:39.860Z,4.25
2022-12-29T00:20:29.300Z,3.10
2022-12-29T00:23:19.147Z,2.98
2022-12-29T00:26:08.625Z,5.17
2022-12-29T00:28:58.138Z,5.92
2022-12-29T00:31:47.745Z,5.60
2022-12-29T00:34:37.519Z,15.20
2022-12-29T00:37:09.526Z,6.25
2022-12-29T00:39:58.949Z,5.03
2022-12-29T00:42:49.044Z,4.75
2022-12-29T00:45:21.031Z,2.02
2022-12-29T00:47:53.283Z,1.70
2022-12-29T00:50:25.506Z,3.02
2022-12-29T00:52:57.626Z,4.60
2022-12-29T00:55:29.538Z,6.37
2022-12-29T00:58:01.724Z,11.12
2022-12-29T01:00:33.831Z,12.37
2022-12-29T01:03:06.422Z,6.17
2022-12-29T01:05:41.338Z,4.87
2022-12-29T01:08:13.326Z,2.95
2022-12-29T01:10:45.161Z,4.97
2022-12-29T01:13:17.210Z,4.95
2022-12-29T01:15:53.888Z,8.60
2022-12-29T01:18:27.744Z,5.03
2022-12-29T01:21:04.795Z,7.62
2022-12-29T01:23:36.789Z,3.92
2022-12-29T01:26:17.960Z,3.30
2022-12-29T01:28:50.134Z,4.08
2022-12-29T01:31:22.625Z,2.83
2022-12-29T01:33:54.541Z,6.65
2022-12-29T01:36:27.000Z,7.85
2022-12-29T01:38:59.219Z,0.93
2022-12-29T01:41:32.562Z,4.42
2022-12-29T01:44:25.256Z,1.55
2022-12-29T01:46:57.760Z,5.50
2022-12-29T01:49:30.510Z,2.05
2022-12-29T01:52:05.623Z,2.50
2022-12-29T01:54:40.452Z,3.77
2022-12-29T01:57:15.251Z,3.77
2022-12-29T01:59:50.453Z,2.87
2022-12-29T02:02:22.864Z,9.10
2022-12-29T02:05:00.129Z,4.55
2022-12-29T02:07:30.999Z,4.15
2022-12-29T02:10:05.092Z,7.60
2022-12-29T02:15:09.143Z,5.83
2022-12-29T02:18:00.122Z,5.00
2022-12-29T02:20:56.048Z,4.17
2022-12-29T02:23:33.712Z,3.98
2022-12-29T02:26:41.439Z,2.30
2022-12-29T02:29:49.087Z,3.62
2022-12-29T02:32:24.059Z,9.33
2022-12-29T02:35:07.801Z,3.83
2022-12-29T02:38:03.560Z,4.92
2022-12-29T02:40:41.041Z,6.17
2022-12-29T02:43:27.498Z,3.85
2022-12-29T02:46:02.916Z,7.03
2022-12-29T02:48:49.621Z,3.58
2022-12-29T02:51:27.349Z,1.40
2022-12-29T02:54:17.572Z,10.78
2022-12-29T02:56:51.306Z,7.10
2022-12-29T02:59:24.532Z,4.58
2022-12-29T03:02:23.563Z,8.10
2022-12-29T03:05:17.450Z,11.63
2022-12-29T03:07:59.203Z,4.40
2022-12-29T03:10:40.054Z,3.15
2022-12-29T03:13:32.449Z,5.45
2022-12-29T03:16:10.108Z,11.20
2022-12-29T03:19:02.436Z,12.05
2022-12-29T03:22:03.938Z,4.80
2022-12-29T03:24:40.780Z,4.12
2022-12-29T03:27:16.461Z,6.62
2022-12-29T03:29:55.890Z,9.40
2022-12-29T03:32:33.937Z,4.37
2022-12-29T03:35:07.743Z,6.97
2022-12-29T03:37:47.024Z,7.08
2022-12-29T03:40:20.962Z,12.18
2022-12-29T03:42:54.832Z,16.77
2022-12-29T03:45:27.714Z,6.22
2022-12-29T03:47:59.714Z,12.63
2022-12-29T03:50:33.146Z,7.47
2022-12-29T03:53:05.249Z,13.35
2022-12-29T03:55:37.327Z,3.40
2022-12-29T03:58:09.281Z,6.17
2022-12-29T04:00:58.728Z,7.33
2022-12-29T04:03:31.491Z,11.68
2022-12-29T04:06:04.285Z,13.65
2022-12-29T04:08:37.961Z,6.90
2022-12-29T04:11:11.116Z,4.85
2022-12-29T04:13:44.399Z,9.88
2022-12-29T04:16:18.410Z,13.32
2022-12-29T04:18:50.694Z,13.45
2022-12-29T04:21:22.680Z,5.80
2022-12-29T04:23:54.811Z,19.67
2022-12-29T04:26:27.014Z,5.67
2022-12-29T04:29:00.708Z,5.08
2022-12-29T04:31:47.017Z,6.47
2022-12-29T04:34:19.158Z,10.80
2022-12-29T04:36:52.564Z,6.42
2022-12-29T04:39:24.831Z,14.18
2022-12-29T04:41:57.799Z,5.95
2022-12-29T04:44:30.830Z,5.05
2022-12-29T04:47:14.554Z,9.50
2022-12-29T04:49:54.129Z,5.12
2022-12-29T04:52:27.832Z,5.28
2022-12-29T04:55:00.346Z,7.62
2022-12-29T04:57:33.196Z,11.00
2022-12-29T05:00:07.996Z,7.73
2022-12-29T05:02:41.705Z,10.70
2022-12-29T05:05:14.944Z,8.63
2022-12-29T05:07:49.788Z,6.50
2022-12-29T05:10:22.163Z,8.18
2022-12-29T05:12:56.414Z,7.70
2022-12-29T05:15:28.697Z,5.72
2022-12-29T05:18:01.122Z,11.68
2022-12-29T05:20:34.808Z,6.10
2022-12-29T05:23:08.603Z,9.75
2022-12-29T05:25:41.565Z,8.98
2022-12-29T05:30:53.498Z,6.87
2022-12-29T05:33:26.222Z,8.43
2022-12-29T05:35:58.426Z,8.10
2022-12-29T05:38:30.983Z,11.70
2022-12-29T05:41:04.660Z,2.83
2022-12-29T05:43:54.877Z,10.20
2022-12-29T05:46:38.034Z,6.00
2022-12-29T05:49:14.474Z,6.62
2022-12-29T05:52:06.564Z,5.28
2022-12-29T05:54:39.668Z,7.28
2022-12-29T05:57:14.001Z,5.47
2022-12-29T06:02:20.070Z,7.00
2022-12-29T06:04:52.872Z,6.00
2022-12-29T06:07:25.606Z,11.15
2022-12-29T06:09:58.346Z,17.92
2022-12-29T06:12:33.171Z,6.35
2022-12-29T06:15:06.020Z,10.05
2022-12-29T06:17:38.335Z,6.90
2022-12-29T06:20:12.184Z,10.25
2022-12-29T06:22:44.603Z,9.57
2022-12-29T06:25:18.344Z,12.73
2022-12-29T06:27:50.287Z,7.78
2022-12-29T06:30:22.375Z,6.83
2022-12-29T06:32:55.854Z,4.22
2022-12-29T06:35:29.949Z,10.18
2022-12-29T06:38:02.057Z,6.70
2022-12-29T06:40:36.265Z,6.95
2022-12-29T06:43:10.878Z,9.68
2022-12-29T06:45:45.981Z,13.25
2022-12-29T06:48:18.642Z,17.15
2022-12-29T06:50:50.847Z,9.35
2022-12-29T06:53:23.211Z,5.60
2022-12-29T06:55:55.745Z,8.68
2022-12-29T06:58:27.896Z,11.03
2022-12-29T07:01:01.367Z,8.70
2022-12-29T07:03:33.855Z,9.18
2022-12-29T07:06:07.153Z,11.33
2022-12-29T07:08:40.085Z,6.08
2022-12-29T07:11:12.807Z,10.82
2022-12-29T07:13:45.096Z,5.17
2022-12-29T07:16:17.972Z,6.47
2022-12-29T07:18:50.608Z,11.48
2022-12-29T07:21:23.475Z,11.20
2022-12-29T07:23:56.508Z,7.40
2022-12-29T07:26:34.410Z,8.20
2022-12-29T07:29:04.398Z,7.17
2022-12-29T07:31:36.478Z,9.73
2022-12-29T07:34:10.252Z,9.23
2022-12-29T07:36:42.514Z,8.28
2022-12-29T07:39:14.977Z,7.05
2022-12-29T07:41:47.020Z,5.78
2022-12-29T07:44:20.853Z,11.20
2022-12-29T07:47:00.644Z,6.03
2022-12-29T07:49:32.743Z,15.85
2022-12-29T07:52:05.255Z,7.15
2022-12-29T07:54:37.572Z,12.47
2022-12-29T07:57:10.208Z,10.60
2022-12-29T07:59:42.820Z,6.40
2022-12-29T08:02:15.532Z,8.43
2022-12-29T08:04:47.892Z,4.45
2022-12-29T08:07:19.934Z,233.32
2022-12-29T08:09:52.064Z,11.90
2022-12-29T08:12:24.652Z,10.05
2022-12-29T08:14:57.218Z,15.80
2022-12-29T08:17:29.777Z,8.45
2022-12-29T08:20:02.561Z,7.80
2022-12-29T08:22:35.906Z,7.47
2022-12-29T08:25:08.658Z,9.43
2022-12-29T08:27:40.915Z,10.32
2022-12-29T08:30:13.803Z,8.50
2022-12-29T08:32:46.210Z,3.50
2022-12-29T08:35:18.621Z,14.33
2022-12-29T08:37:51.748Z,7.35
2022-12-29T08:40:25.699Z,8.43
2022-12-29T08:42:57.805Z,7.53
2022-12-29T08:45:30.291Z,8.68
2022-12-29T08:48:02.731Z,13.05
2022-12-29T08:50:34.761Z,12.93
2022-12-29T08:53:07.576Z,9.08
2022-12-29T08:55:40.000Z,9.38
2022-12-29T08:58:13.960Z,23.07
2022-12-29T09:00:47.859Z,10.45
2022-12-29T09:03:37.756Z,20.75
2022-12-29T09:05:55.127Z,10.05
2022-12-29T09:08:27.660Z,15.48
2022-12-29T09:11:11.429Z,11.35
2022-12-29T09:13:43.908Z,12.05
2022-12-29T09:16:16.620Z,10.38
2022-12-29T09:18:49.259Z,10.53
2022-12-29T09:21:21.678Z,11.53
2022-12-29T09:23:53.742Z,8.90
2022-12-29T09:26:26.190Z,16.27
2022-12-29T09:28:58.747Z,12.35
2022-12-29T09:31:31.403Z,14.05
2022-12-29T09:34:04.045Z,11.35
2022-12-29T09:36:36.069Z,10.15
2022-12-29T09:39:08.462Z,20.30
2022-12-29T09:41:49.036Z,17.02
2022-12-29T09:44:24.129Z,15.03
2022-12-29T09:46:59.133Z,9.13
2022-12-29T09:49:44.152Z,15.43
2022-12-29T09:52:26.484Z,13.83
2022-12-29T09:55:13.528Z,12.07
2022-12-29T09:57:50.949Z,9.55
2022-12-29T10:00:25.588Z,10.53
2022-12-29T10:03:03.936Z,16.52
2022-12-29T10:05:56.377Z,15.72
2022-12-29T10:08:46.100Z,17.70
2022-12-29T10:11:39.640Z,16.40
2022-12-29T10:14:37.045Z,9.18
2022-12-29T10:17:34.371Z,10.82
2022-12-29T10:20:09.460Z,13.03
2022-12-29T10:23:05.271Z,18.12
2022-12-29T10:25:42.469Z,18.30
2022-12-29T10:28:23.416Z,11.12
2022-12-29T10:31:03.521Z,26.02
2022-12-29T10:33:35.738Z,16.65
2022-12-29T10:36:19.627Z,16.02
2022-12-29T10:38:54.944Z,15.83
2022-12-29T10:41:30.029Z,13.43
2022-12-29T10:44:03.928Z,15.75
2022-12-29T10:49:21.290Z,18.27
2022-12-29T10:51:53.306Z,16.50
2022-12-29T10:54:34.074Z,17.15
2022-12-29T10:57:14.722Z,12.93
2022-12-29T10:59:47.415Z,10.53
2022-12-29T11:02:38.766Z,20.92
2022-12-29T11:05:20.331Z,17.00
2022-12-29T11:07:56.038Z,15.48
2022-12-29T11:10:41.938Z,27.98
2022-12-29T11:13:22.388Z,12.73
2022-12-29T11:15:54.940Z,13.58
2022-12-29T11:18:39.135Z,10.13
2022-12-29T11:21:32.020Z,13.78
2022-12-29T11:24:06.772Z,14.87
2022-12-29T11:26:38.857Z,11.40
2022-12-29T11:29:19.488Z,13.00
2022-12-29T11:32:00.997Z,15.20
2022-12-29T11:34:36.147Z,23.20
2022-12-29T11:37:17.329Z,16.82
2022-12-29T11:40:08.728Z,16.82
2022-12-29T11:42:45.345Z,17.40
2022-12-29T11:45:30.096Z,17.57
2022-12-29T11:48:05.096Z,15.30
2022-12-29T11:50:40.192Z,28.50
2022-12-29T11:53:25.029Z,22.00
2022-12-29T11:56:00.039Z,17.95
2022-12-29T11:58:34.731Z,13.35
2022-12-29T12:01:22.182Z,14.07
2022-12-29T12:04:06.387Z,12.05
2022-12-29T12:06:47.755Z,19.77
2022-12-29T12:09:34.925Z,17.77
2022-12-29T12:12:09.793Z,16.40
2022-12-29T12:14:59.693Z,13.62
2022-12-29T12:17:48.323Z,14.95
2022-12-29T12:20:29.123Z,13.88
2022-12-29T12:23:04.647Z,10.00
2022-12-29T12:26:11.779Z,14.58
2022-12-29T12:28:52.651Z,9.68
2022-12-29T12:31:49.856Z,17.70
2022-12-29T12:34:27.771Z,13.78
2022-12-29T12:37:08.901Z,17.65
2022-12-29T12:39:50.055Z,16.82
2022-12-29T12:42:28.132Z,16.97
2022-12-29T12:45:17.811Z,19.62
2022-12-29T12:48:11.093Z,16.65
2022-12-29T12:50:54.854Z,15.53
2022-12-29T12:53:41.913Z,25.35
2022-12-29T12:56:22.727Z,24.87
2022-12-29T12:59:18.631Z,15.72
2022-12-29T13:02:06.239Z,16.57
2022-12-29T13:04:41.359Z,13.55
2022-12-29T13:07:19.233Z,20.05
2022-12-29T13:10:21.715Z,13.22
2022-12-29T13:13:17.709Z,13.50
2022-12-29T13:16:07.427Z,18.25
2022-12-29T13:18:41.640Z,17.82
2022-12-29T13:21:31.563Z,14.87
2022-12-29T13:24:06.712Z,13.45
2022-12-29T13:26:47.609Z,15.53
2022-12-29T13:29:40.288Z,13.65
2022-12-29T13:32:24.386Z,16.67
2022-12-29T13:35:08.081Z,22.73
2022-12-29T13:37:43.559Z,17.85
2022-12-29T13:40:20.057Z,26.12
2022-12-29T13:42:54.681Z,16.65
2022-12-29T13:45:29.310Z,18.95
2022-12-29T13:48:14.039Z,20.75
2022-12-29T13:50:49.180Z,11.45
2022-12-29T13:53:24.728Z,32.75
2022-12-29T13:56:11.683Z,16.15
2022-12-29T13:59:01.751Z,11.65
2022-12-29T14:01:36.996Z,13.93
2022-12-29T14:04:15.578Z,21.97
2022-12-29T14:06:50.331Z,16.87
2022-12-29T14:09:35.597Z,16.02
2022-12-29T14:12:28.739Z,13.90
2022-12-29T14:15:13.253Z,18.50
2022-12-29T14:18:06.687Z,19.98
2022-12-29T14:20:40.005Z,17.90
2022-12-29T14:23:14.965Z,19.33
2022-12-29T14:26:04.688Z,17.55
2022-12-29T14:28:39.878Z,16.90
2022-12-29T14:31:21.584Z,19.52
2022-12-29T14:34:14.801Z,18.25
2022-12-29T14:37:02.426Z,19.77
2022-12-29T14:39:44.357Z,19.70
2022-12-29T14:42:19.589Z,15.83
2022-12-29T14:45:11.869Z,16.20
2022-12-29T14:47:47.150Z,22.62
2022-12-29T14:50:23.556Z,22.40
2022-12-29T14:53:04.243Z,17.42
2022-12-29T14:55:44.899Z,22.45
2022-12-29T14:58:23.361Z,22.82
2022-12-29T15:00:57.350Z,17.12
2022-12-29T15:03:35.743Z,26.50
2022-12-29T15:06:17.174Z,33.95
2022-12-29T15:09:07.289Z,27.27
2022-12-29T15:11:44.728Z,22.17
2022-12-29T15:14:38.755Z,20.52
2022-12-29T15:17:24.984Z,30.45
2022-12-29T15:19:59.025Z,20.72
2022-12-29T15:22:33.240Z,31.52
2022-12-29T15:25:05.858Z,28.40
2022-12-29T15:27:37.761Z,33.35
2022-12-29T15:30:17.858Z,25.02
2022-12-29T15:32:48.644Z,26.12
2022-12-29T15:35:38.603Z,20.57
2022-12-29T15:38:23.498Z,25.10
2022-12-29T15:40:59.335Z,18.55
2022-12-29T15:43:47.117Z,30.32
2022-12-29T15:46:19.363Z,23.83
2022-12-29T15:48:51.623Z,36.13
2022-12-29T15:51:29.802Z,28.40
2022-12-29T15:54:02.681Z,23.20
2022-12-29T15:56:35.755Z,23.05
2022-12-29T15:59:09.278Z,19.92
2022-12-29T16:01:41.580Z,26.20
2022-12-29T16:04:14.047Z,28.67
2022-12-29T16:06:49.002Z,20.77
2022-12-29T16:09:24.034Z,24.50
2022-12-29T16:11:58.932Z,24.27
2022-12-29T16:14:46.144Z,23.60
2022-12-29T16:17:21.406Z,24.98
2022-12-29T16:19:58.886Z,31.27
2022-12-29T16:22:35.456Z,25.25
2022-12-29T16:25:10.555Z,23.05
2022-12-29T16:27:44.994Z,32.55
2022-12-29T16:30:33.548Z,27.30
2022-12-29T16:33:07.434Z,26.75
2022-12-29T16:35:47.709Z,30.20
2022-12-29T16:38:25.624Z,34.13
2022-12-29T16:41:00.075Z,26.97
2022-12-29T16:43:35.727Z,38.28
2022-12-29T16:46:14.202Z,32.67
2022-12-29T16:48:55.147Z,33.48
2022-12-29T16:51:36.098Z,43.63
2022-12-29T16:54:08.493Z,30.48
2022-12-29T16:56:43.485Z,39.42
2022-12-29T16:59:36.372Z,38.90
2022-12-29T17:02:17.612Z,31.48
2022-12-29T17:04:51.636Z,39.45
2022-12-29T17:07:26.445Z,39.58
2022-12-29T17:09:58.743Z,38.58
2022-12-29T17:12:32.004Z,42.78
2022-12-29T17:15:13.857Z,34.98
2022-12-29T17:17:49.315Z,38.73
2022-12-29T17:20:27.519Z,35.05
2022-12-29T17:23:01.090Z,39.05
2022-12-29T17:25:36.392Z,41.63
2022-12-29T17:28:21.352Z,34.98
2022-12-29T17:30:57.217Z,34.38
2022-12-29T17:33:31.022Z,45.10
2022-12-29T17:36:03.168Z,47.10
2022-12-29T17:38:37.835Z,41.00
2022-12-29T17:41:16.640Z,43.68
2022-12-29T17:43:49.464Z,45.67
2022-12-29T17:46:22.029Z,55.30
2022-12-29T17:48:54.350Z,48.48
2022-12-29T17:51:26.655Z,42.48
2022-12-29T17:53:59.218Z,40.43
2022-12-29T17:56:31.837Z,50.43
2022-12-29T17:59:04.582Z,44.38
2022-12-29T18:01:41.008Z,39.42
2022-12-29T18:04:13.802Z,46.65
2022-12-29T18:06:47.444Z,48.00
2022-12-29T18:09:21.330Z,39.25
2022-12-29T18:12:05.741Z,40.55
2022-12-29T18:14:37.997Z,39.55
2022-12-29T18:17:14.441Z,50.78
2022-12-29T18:19:46.661Z,38.55
2022-12-29T18:22:18.765Z,46.08
2022-12-29T18:24:51.150Z,37.13
2022-12-29T18:27:23.260Z,36.10
2022-12-29T18:29:55.537Z,40.20
2022-12-29T18:32:28.542Z,34.00
2022-12-29T18:35:01.104Z,39.18
2022-12-29T18:37:33.457Z,39.90
2022-12-29T18:40:05.946Z,42.70
2022-12-29T18:42:38.267Z,44.83
2022-12-29T18:45:24.325Z,37.38
2022-12-29T18:47:56.255Z,38.38
2022-12-29T18:50:29.532Z,39.03
2022-12-29T18:53:04.215Z,43.02
2022-12-29T18:55:36.332Z,44.42
2022-12-29T18:58:08.477Z,45.80
2022-12-29T19:00:41.104Z,45.55
2022-12-29T19:03:15.727Z,43.45
2022-12-29T19:05:49.337Z,47.03
2022-12-29T19:08:21.360Z,47.58
2022-12-29T19:10:53.589Z,45.40
2022-12-29T19:13:27.424Z,37.48
2022-12-29T19:16:00.263Z,38.92
2022-12-29T19:18:43.565Z,35.73
2022-12-29T19:21:07.164Z,37.98
2022-12-29T19:23:39.457Z,41.75
2022-12-29T19:29:02.219Z,38.15
2022-12-29T19:31:34.880Z,33.83
2022-12-29T19:34:07.107Z,40.70
2022-12-29T19:36:39.410Z,33.08
2022-12-29T19:39:12.791Z,36.77
2022-12-29T19:41:45.124Z,36.70
2022-12-29T19:44:17.450Z,35.68
2022-12-29T19:46:49.736Z,34.90
2022-12-29T19:49:22.063Z,34.67
2022-12-29T19:51:54.130Z,38.98
2022-12-29T19:54:26.193Z,38.45
2022-12-29T19:56:58.193Z,38.48
2022-12-29T19:59:30.235Z,39.25
2022-12-29T20:02:02.737Z,41.02
2022-12-29T20:04:35.202Z,36.83
2022-12-29T20:07:07.259Z,34.38
2022-12-29T20:09:39.181Z,38.63
2022-12-29T20:12:11.901Z,37.83
2022-12-29T20:14:45.151Z,41.37
2022-12-29T20:17:32.686Z,38.02
2022-12-29T20:19:53.043Z,38.33
2022-12-29T20:22:25.376Z,34.13
2022-12-29T20:25:25.979Z,35.28
2022-12-29T20:27:31.852Z,35.48
2022-12-29T20:30:04.345Z,34.75
2022-12-29T20:32:36.490Z,36.50
2022-12-29T20:35:09.457Z,43.33
2022-12-29T20:37:42.000Z,31.50
2022-12-29T20:40:16.219Z,29.35
2022-12-29T20:42:48.666Z,36.63
2022-12-29T20:45:20.905Z,38.42
2022-12-29T20:47:53.228Z,29.20
2022-12-29T20:50:25.967Z,34.13
2022-12-29T20:52:58.267Z,34.78
2022-12-29T20:55:31.566Z,32.58
2022-12-29T21:00:37.425Z,32.90
2022-12-29T21:03:09.806Z,35.68
2022-12-29T21:05:42.333Z,30.82
2022-12-29T21:08:14.407Z,31.37
2022-12-29T21:10:50.774Z,37.75
2022-12-29T21:13:22.737Z,34.95
2022-12-29T21:16:03.254Z,33.60
2022-12-29T21:18:35.509Z,34.63
2022-12-29T21:21:10.864Z,36.15
2022-12-29T21:23:43.016Z,32.90
2022-12-29T21:26:17.270Z,40.95
2022-12-29T21:28:49.549Z,34.30
2022-12-29T21:31:33.639Z,32.75
2022-12-29T21:34:07.007Z,41.50
2022-12-29T21:36:39.117Z,36.35
2022-12-29T21:39:12.875Z,36.23
2022-12-29T21:41:45.361Z,39.98
2022-12-29T21:44:35.487Z,42.78
2022-12-29T21:47:07.692Z,33.73
2022-12-29T21:49:39.725Z,33.60
2022-12-29T21:52:12.013Z,31.10
2022-12-29T21:55:02.117Z,34.80
2022-12-29T21:57:51.951Z,38.53
2022-12-29T22:00:41.621Z,39.88
2022-12-29T22:03:32.112Z,30.15
2022-12-29T22:06:22.283Z,36.00
2022-12-29T22:09:12.005Z,46.10
2022-12-29T22:12:01.657Z,47.00
2022-12-29T22:14:33.660Z,36.80
2022-12-29T22:17:10.616Z,30.65
2022-12-29T22:19:39.641Z,39.27
2022-12-29T22:22:11.647Z,39.13
2022-12-29T22:24:43.647Z,38.13
2022-12-29T22:27:16.026Z,34.98
2022-12-29T22:29:48.449Z,37.17
2022-12-29T22:32:20.527Z,40.40
2022-12-29T22:34:52.478Z,48.80
2022-12-29T22:37:24.490Z,43.65
2022-12-29T22:39:56.521Z,44.70
2022-12-29T22:42:28.674Z,33.45
2022-12-29T22:45:00.993Z,35.03
2022-12-29T22:47:33.599Z,37.78
2022-12-29T22:50:06.642Z,39.65
2022-12-29T22:52:38.606Z,36.40
2022-12-29T22:55:11.098Z,41.80
2022-12-29T22:57:43.155Z,32.67
2022-12-29T23:00:15.567Z,45.17
2022-12-29T23:02:47.719Z,43.78
2022-12-29T23:05:20.046Z,39.85
2022-12-29T23:07:52.244Z,34.43
2022-12-29T23:10:24.164Z,35.13
2022-12-29T23:12:56.382Z,41.75
2022-12-29T23:15:28.381Z,45.88
2022-12-29T23:18:00.389Z,40.45
2022-12-29T23:20:32.422Z,42.33
2022-12-29T23:23:04.676Z,38.25
2022-12-29T23:25:40.532Z,39.05
2022-12-29T23:28:12.582Z,39.50
2022-12-29T23:30:44.782Z,37.50
2022-12-29T23:33:16.868Z,40.30
2022-12-29T23:35:48.776Z,40.17
2022-12-29T23:38:20.749Z,41.95
2022-12-29T23:40:52.612Z,41.53
2022-12-29T23:43:24.692Z,35.33
2022-12-29T23:45:56.710Z,42.13
2022-12-29T23:48:28.553Z,43.25
2022-12-29T23:51:00.755Z,43.15
2022-12-29T23:53:33.765Z,36.68
2022-12-29T23:56:06.955Z,40.63
2022-12-29T23:58:39.432Z,37.30
